• Join FlightAware (Why Join?)
  • Login
  • US Flag GB Flag 
11:19 EST


 

Airport Tracker/Info


-or-


 

Live Flight TrackerFlight Track Log ✈ EJM777 ✈ 15-Oct-2013 ✈ KPWK - KEAT

Flight Track Log - Related Links

Times and Time Zones

All times are in EDT time to prevent confusion due to time zone crossing. See the EJM777 flight status page for this flight to view local times or setup timezone preferences in your user account.

Time Position Orientation Groundspeed Altitude Reporting Facility
EDT Latitude Longitude Course Direction KTS MPH feet Rate Location/Type
07:51 42.1922 -87.8792 259° West 230 265 4,700  Level Chicago Center
07:52 42.2406 -87.9142 332° Northwest 231 266 9,100 3,180 Climbing Chicago Center
07:53 42.2394 -88.0019 269° West 243 280 11,300 2,280 Climbing Chicago Center
07:54 42.2456 -88.1106 274° West 284 327 13,800 2,640 Climbing Chicago Center
07:55 42.2517 -88.2256 274° West 305 351 16,800 2,520 Climbing Chicago Center
07:56 42.3288 -88.5536 259° West  Level Estimated
07:56 42.2400 -88.3392 262° West 310 357 19,000  Level Chicago Center
07:58 42.2272 -88.4533 261° West 313 360 21,500 1,920 Climbing Chicago Center
07:59 42.2097 -88.5983 261° West 327 376 23,000 1,500 Climbing Chicago Center
08:00 42.1928 -88.7378 261° West 374 430 24,600 2,040 Climbing Chicago Center
08:01 42.1853 -88.8681 266° West 370 426 27,200 2,400 Climbing Chicago Center
08:02 42.1992 -88.9978 278° West 357 411 29,600 2,280 Climbing Chicago Center
08:03 42.2122 -89.1217 278° West 343 395 32,000 2,520 Climbing Chicago Center
08:04 42.2297 -89.2608 280° West 321 369 34,900 2,100 Climbing Chicago Center
08:05 42.2153 -89.3642 259° West 292 336 36,400 1,080 Climbing Chicago Center
08:07 42.1836 -89.5747 259° West 287 330 38,400 840 Climbing Chicago Center
08:08 42.1669 -89.6800 258° West 286 329 39,100 540 Climbing Chicago Center
08:09 42.1606 -89.7908 266° West 299 344 39,600 420 Climbing Chicago Center
08:10 42.1969 -89.9197 291° West 319 367 40,000 180 Climbing Chicago Center
08:11 42.2356 -90.0347 294° West 333 383 40,000  Level Chicago Center
08:12 42.2756 -90.1556 294° West 348 400 40,000  Level Chicago Center
08:13 42.3169 -90.2772 295° West 358 412 40,000  Level Chicago Center
08:14 42.3564 -90.3994 294° West 357 411 40,000  Level Chicago Center
08:15 42.4028 -90.5486 293° West 361 415 40,000  Level Chicago Center
08:16 42.4442 -90.6708 295° West 361 415 40,000  Level Chicago Center
08:17 42.4839 -90.7961 293° West 364 419 40,000  Level Chicago Center
08:18 42.5236 -90.9200 294° West 364 419 40,000  Level Chicago Center
08:19 42.5639 -91.0433 294° West 362 417 40,000  Level Chicago Center
08:20 42.6100 -91.1931 293° West 360 414 40,000  Level Chicago Center
08:21 42.6494 -91.3183 293° West 363 418 40,000  Level Chicago Center
08:22 42.6894 -91.4464 293° West 368 423 40,000  Level Chicago Center
08:23 42.7264 -91.5667 293° West 366 421 40,000  Level Chicago Center
08:24 42.7739 -91.7189 293° West 366 421 40,000  Level Chicago Center
08:25 42.8103 -91.8378 293° West 368 423 40,000  Level Chicago Center
08:26 42.8492 -91.9658 293° West 368 423 40,000  Level Chicago Center
08:27 42.8883 -92.0933 293° West 368 423 40,000  Level Chicago Center
08:28 42.9350 -92.2497 292° West 374 430 40,000  Level Chicago Center
08:29 42.9756 -92.3808 293° West 378 435 40,000  Level Chicago Center
08:31 43.0156 -92.5139 292° West 381 438 40,000  Level Chicago Center
08:32 43.0553 -92.6478 292° West 384 442 40,000  Level Chicago Center
08:33 43.0964 -92.7853 292° West 392 451 40,000  Level Chicago Center
08:34 43.1453 -92.9506 292° West 395 455 40,000  Level Chicago Center
08:35 43.1856 -93.0872 292° West 392 451 40,000  Level Chicago Center
08:36 43.2256 -93.2256 292° West 393 452 40,000  Level Chicago Center
08:37 43.2650 -93.3619 292° West 390 449 40,000  Level Chicago Center
08:38 43.3058 -93.4967 293° West 388 447 40,000  Level Chicago Center
08:39 43.3614 -93.6906 292° West 392 451 40,000  Level Minneapolis Center
08:40 43.4011 -93.8294 292° West 394 453 40,000  Level Minneapolis Center
08:41 43.4497 -93.9967 292° West 395 455 40,000  Level Minneapolis Center
08:42 43.4903 -94.1381 292° West 399 459 40,000  Level Minneapolis Center
08:43 43.5261 -94.2669 291° West 396 456 40,000  Level Minneapolis Center
08:44 43.5742 -94.4375 291° West 397 457 40,000  Level Minneapolis Center
08:45 43.6128 -94.5789 291° West 396 456 40,000  Level Minneapolis Center
08:46 43.6519 -94.7222 291° West 399 459 40,000  Level Minneapolis Center
08:47 43.6919 -94.8642 291° West 397 457 40,000  Level Minneapolis Center
08:48 43.7306 -95.0089 290° West 400 460 40,000  Level Minneapolis Center
08:49 43.7706 -95.1544 291° West 405 466 40,000  Level Minneapolis Center
08:50 43.8111 -95.3022 291° West 409 471 40,000  Level Minneapolis Center
08:51 43.8569 -95.4775 290° West 405 466 40,000  Level Minneapolis Center
08:52 43.8972 -95.6250 291° West 409 471 40,000  Level Minneapolis Center
08:54 43.9358 -95.7725 290° West 408 470 40,000  Level Minneapolis Center
08:55 43.9750 -95.9208 290° West 408 470 40,000  Level Minneapolis Center
08:56 44.0131 -96.0694 290° West 407 468 40,000  Level Minneapolis Center
08:57 44.0531 -96.2219 290° West 412 474 40,000  Level Minneapolis Center
08:58 44.0917 -96.3739 290° West 409 471 40,000  Level Minneapolis Center
08:59 44.1300 -96.5261 289° West 411 473 40,000  Level Minneapolis Center
09:00 44.1678 -96.6769 289° West 412 474 40,000  Level Minneapolis Center
09:01 44.2136 -96.8581 290° West 413 475 40,000  Level Minneapolis Center
09:02 44.2517 -97.0092 289° West 414 476 40,000  Level Minneapolis Center
09:03 44.2894 -97.1614 289° West 416 479 40,000  Level Minneapolis Center
09:04 44.3275 -97.3128 289° West 415 478 40,000  Level Minneapolis Center
09:05 44.3656 -97.4658 289° West 418 481 40,000  Level Minneapolis Center
09:06 44.4014 -97.6194 288° West 417 480 40,100 240 Climbing Minneapolis Center
09:07 44.4386 -97.7708 289° West 414 476 40,600 420 Climbing Minneapolis Center
09:08 44.4828 -97.9528 289° West 412 474 41,000 180 Climbing Minneapolis Center
09:09 44.5217 -98.1047 290° West 415 478 41,000  Level Minneapolis Center
09:10 44.5581 -98.2575 289° West 415 478 41,000  Level Minneapolis Center
09:11 44.5958 -98.4236 288° West 416 479 41,000  Level Minneapolis Center
09:12 44.6319 -98.5772 288° West 416 479 41,000  Level Minneapolis Center
09:13 44.6681 -98.7311 288° West 414 476 41,000  Level Minneapolis Center
09:14 44.7036 -98.8853 288° West 415 478 41,000  Level Minneapolis Center
09:15 44.7383 -99.0400 288° West 415 478 41,000  Level Minneapolis Center
09:16 44.7736 -99.1947 288° West 416 479 41,000  Level Minneapolis Center
09:17 44.8081 -99.3489 288° West 414 476 41,000  Level Minneapolis Center
09:18 44.8494 -99.5342 288° West 413 475 41,000  Level Minneapolis Center
09:19 44.8844 -99.6897 288° West 413 475 41,000  Level Minneapolis Center
09:20 44.9178 -99.8461 287° West 413 475 41,000  Level Minneapolis Center
09:21 44.9519 -100.0053 287° West 413 475 41,000  Level Minneapolis Center
09:22 44.9883 -100.1656 288° West 416 479 41,000  Level Minneapolis Center
09:23 45.0219 -100.3222 287° West 414 476 41,000  Level Minneapolis Center
09:24 45.0564 -100.4797 287° West 416 479 41,000  Level Minneapolis Center
09:25 45.0897 -100.6386 287° West 418 481 41,000  Level Minneapolis Center
09:26 45.1225 -100.7969 286° West 419 482 41,000  Level Minneapolis Center
09:28 45.1550 -100.9539 286° West 418 481 41,000  Level Minneapolis Center
09:29 45.1975 -101.1469 287° West 423 487 41,000  Level Minneapolis Center
09:30 45.2311 -101.3067 287° West 424 488 41,000  Level Minneapolis Center
09:31 45.2631 -101.4664 286° West 421 484 41,000  Level Minneapolis Center
09:32 45.2958 -101.6261 286° West 422 486 41,100 240 Climbing Minneapolis Center
09:33 45.3283 -101.7858 286° West 421 484 41,600 480 Climbing Minneapolis Center
09:34 45.3594 -101.9436 286° West 418 481 42,100 480 Climbing Minneapolis Center
09:35 45.3903 -102.0986 286° West 412 474 42,600 420 Climbing Minneapolis Center
09:36 45.4211 -102.2522 286° West 407 468 43,000 180 Climbing Minneapolis Center
09:37 45.4567 -102.4394 285° West 407 468 43,000  Level Minneapolis Center
09:38 45.4878 -102.5969 286° West 412 474 43,000  Level Minneapolis Center
09:39 45.5181 -102.7547 285° West 413 475 43,000  Level Minneapolis Center
09:40 45.5472 -102.9125 285° West 412 474 43,000  Level Minneapolis Center
09:41 45.5803 -103.0844 285° West 412 474 43,000  Level Minneapolis Center
09:42 45.6089 -103.2428 285° West 412 474 43,000  Level Minneapolis Center
09:43 45.6383 -103.4006 285° West 412 474 43,000  Level Minneapolis Center
09:44 45.6672 -103.5586 285° West 412 474 43,000  Level Minneapolis Center
09:45 45.6953 -103.7169 284° West 412 474 43,000  Level Minneapolis Center
09:46 45.7247 -103.8753 285° West 412 474 43,000  Level Minneapolis Center
09:47 45.7525 -104.0353 284° West 413 475 43,000  Level Minneapolis Center
09:48 45.7864 -104.2281 284° West 415 478 43,000  Level Minneapolis Center
09:49 45.8139 -104.3864 284° West 412 474 43,000  Level Minneapolis Center
09:50 45.8408 -104.5456 284° West 411 473 43,000  Level Minneapolis Center
09:52 45.8775 -104.7597 284° West 419 482 43,000  Level Salt Lake Center
09:53 45.9044 -104.9197 284° West 416 479 43,000  Level Salt Lake Center
09:54 45.9294 -105.0789 283° West 413 475 43,000  Level Salt Lake Center
09:55 45.9603 -105.2711 283° West 412 474 43,000  Level Salt Lake Center
09:56 45.9875 -105.4350 284° West 417 480 43,000  Level Salt Lake Center
09:57 46.0136 -105.5961 283° West 419 482 43,000  Level Salt Lake Center
09:58 46.0400 -105.7594 283° West 419 482 43,000  Level Salt Lake Center
09:59 46.0658 -105.9233 283° West 421 484 43,000  Level Salt Lake Center
10:00 46.0925 -106.0892 283° West 424 488 43,000  Level Salt Lake Center
10:01 46.1200 -106.2556 283° West 427 491 43,000  Level Salt Lake Center
10:02 46.1464 -106.4233 283° West 429 494 43,000  Level Salt Lake Center
10:03 46.1775 -106.6222 283° West 428 493 43,000  Level Salt Lake Center
10:04 46.2031 -106.7878 283° West 426 490 43,000  Level Salt Lake Center
10:05 46.2281 -106.9533 282° West 425 489 43,000  Level Salt Lake Center
10:06 46.2531 -107.1200 282° West 426 490 43,000  Level Salt Lake Center
10:07 46.2769 -107.2867 282° West 426 490 43,000  Level Salt Lake Center
10:08 46.3003 -107.4539 281° West 426 490 43,000  Level Salt Lake Center
10:09 46.3244 -107.6225 282° West 429 494 43,000  Level Salt Lake Center
10:10 46.3483 -107.7889 282° West 425 489 43,000  Level Salt Lake Center
10:11 46.3764 -107.9917 281° West 430 495 43,000  Level Salt Lake Center
10:12 46.4006 -108.1628 282° West 436 502 43,000  Level Salt Lake Center
10:13 46.4239 -108.3328 281° West 434 499 43,000  Level Salt Lake Center
10:14 46.4472 -108.5028 281° West 433 498 43,000  Level Salt Lake Center
10:15 46.4700 -108.6753 281° West 434 499 43,000  Level Salt Lake Center
10:16 46.4925 -108.8456 281° West 432 497 43,000  Level Salt Lake Center
10:17 46.5150 -109.0189 281° West 438 504 43,000  Level Salt Lake Center
10:18 46.5425 -109.2267 281° West 438 504 43,000  Level Salt Lake Center
10:19 46.5642 -109.4017 280° West 442 509 43,000  Level Salt Lake Center
10:20 46.5847 -109.5786 280° West 446 513 43,000  Level Salt Lake Center
10:21 46.6064 -109.7514 280° West 440 506 43,000  Level Salt Lake Center
10:22 46.6278 -109.9244 280° West 437 503 43,000  Level Salt Lake Center
10:23 46.6494 -110.1003 280° West 441 507 43,000  Level Salt Lake Center
10:24 46.6689 -110.2736 279° West 438 504 43,000  Level Salt Lake Center
10:25 46.6944 -110.4819 280° West 437 503 43,000  Level Salt Lake Center
10:26 46.7142 -110.6506 280° West 439 505 43,000  Level Salt Lake Center
10:27 46.7336 -110.8244 279° West 436 502 43,000  Level Salt Lake Center
10:28 46.7533 -110.9994 279° West 438 504 43,000  Level Salt Lake Center
10:29 46.7728 -111.1753 279° West 438 504 43,000  Level Salt Lake Center
10:30 46.7914 -111.3489 279° West 435 501 43,000  Level Salt Lake Center
10:32 46.8100 -111.5247 279° West 437 503 43,000  Level Salt Lake Center
10:33 46.8294 -111.6992 279° West 435 501 43,000  Level Salt Lake Center
10:34 46.8469 -111.8753 278° West 437 503 43,000  Level Salt Lake Center
10:35 46.8694 -112.0853 279° West 436 502 43,000  Level Salt Lake Center
10:36 46.8858 -112.2611 278° West 438 504 43,000  Level Salt Lake Center
10:37 46.9036 -112.4356 279° West 436 502 43,000  Level Salt Lake Center
10:38 46.9206 -112.6092 278° West 434 499 43,000  Level Salt Lake Center
10:39 46.9369 -112.7836 278° West 433 498 43,000  Level Salt Lake Center
10:40 46.9533 -112.9586 278° West 437 503 43,000  Level Salt Lake Center
10:41 46.9703 -113.1336 278° West 435 501 43,000  Level Salt Lake Center
10:42 46.9889 -113.3444 277° West 436 502 43,000  Level Salt Lake Center
10:43 47.0047 -113.5197 278° West 436 502 43,000  Level Salt Lake Center
10:44 47.0208 -113.6950 278° West 434 499 43,000  Level Salt Lake Center
10:45 47.0350 -113.8722 277° West 437 503 43,000  Level Salt Lake Center
10:46 47.0508 -114.0453 278° West 431 496 43,000  Level Salt Lake Center
10:47 47.0644 -114.2208 277° West 430 495 43,000  Level Salt Lake Center
10:48 47.0789 -114.3967 277° West 433 498 43,000  Level Salt Lake Center
10:49 47.0931 -114.5717 277° West 431 496 43,000  Level Salt Lake Center
10:50 47.1094 -114.7833 277° West 434 499 43,000  Level Salt Lake Center
10:51 47.1244 -114.9631 277° West 438 504 43,000  Level Seattle Center
10:52 47.1369 -115.1414 276° West 438 504 43,000  Level Seattle Center
10:53 47.1503 -115.3178 276° West 438 504 43,000  Level Seattle Center
10:54 47.1622 -115.4953 276° West 433 498 43,000  Level Seattle Center
10:55 47.1742 -115.6697 276° West 431 496 43,000  Level Seattle Center
10:56 47.1897 -115.8814 276° West 434 499 43,000  Level Seattle Center
10:57 47.2006 -116.0597 275° West 437 503 43,000  Level Seattle Center
10:58 47.2125 -116.2367 276° West 436 502 43,000  Level Seattle Center
10:59 47.2236 -116.4153 275° West 439 505 43,000  Level Seattle Center
11:00 47.2350 -116.5942 275° West 439 505 43,000  Level Seattle Center
11:01 47.2450 -116.7714 275° West 435 501 43,000  Level Seattle Center
11:02 47.2550 -116.9503 275° West 435 501 43,000  Level Seattle Center
11:03 47.2658 -117.1281 275° West 433 498 43,000  Level Seattle Center
11:04 47.2761 -117.3078 275° West 435 501 43,000  Level Seattle Center
11:05 47.2853 -117.4844 274° West 432 497 43,000  Level Seattle Center
11:06 47.2944 -117.6611 274° West 431 496 43,000 -720 Level Seattle Center
11:07 47.3039 -117.8375 275° West 432 497 41,600 -2,220 Descending Seattle Center
11:08 47.3131 -118.0136 274° West 431 496 38,500 -3,000 Descending Seattle Center
11:09 47.3208 -118.1892 274° West 432 497 35,500 -3,000 Descending Seattle Center
11:10 47.3289 -118.3636 274° West 428 493 32,500 -3,120 Descending Seattle Center
11:11 47.3378 -118.5467 274° West 445 512 29,300 -3,120 Descending Seattle Center
11:13 47.3439 -118.7231 273° West 436 502 26,200 -3,000 Descending Seattle Center
11:14 47.3525 -118.8981 274° West 430 495 23,200 -3,180 Descending Seattle Center
11:15 47.3592 -119.0964 273° West 411 473 19,800 -2,940 Descending Seattle Center
11:16 47.3667 -119.2572 274° West 398 458 17,300 -2,700 Descending Seattle Center
11:17 47.3719 -119.4086 273° West 376 433 14,400 -2,760 Descending Seattle Center
11:18 47.3769 -119.5614 273° West 350 403 11,700 -2,460 Descending Seattle Center
11:19 47.3811 -119.6922 273° West 319 367 9,500 -2,040 Descending Seattle Center
11:20 47.3844 -119.8028 273° West 276 318 7,600 -1,740 Descending Seattle Center
11:21 47.3878 -119.9161 273° West 260 299 6,000 -1,260 Descending Seattle Center
11:22 47.3758 -120.0044 259° West 224 258 5,100 -1,200 Descending Seattle Center
11:23 47.3447 -120.0669 234° Southwest 193 222 3,700 -1,140 Descending Seattle Center
11:24 47.3486 -120.1375 275° West 183 211 2,900 -840 Descending Seattle Center
11:26 47.3833 -120.2000 270° West  Level FlightAware Approximate